createdAt,value
2019-03-21T00:00:40.837Z,5.00
2019-03-21T00:03:07.388Z,5.00
2019-03-21T00:05:34.622Z,4.90
2019-03-21T00:08:01.888Z,4.90
2019-03-21T00:10:32.135Z,4.90
2019-03-21T00:12:58.800Z,5.00
2019-03-21T00:15:37.792Z,5.10
2019-03-21T00:18:07.566Z,5.20
2019-03-21T00:20:34.221Z,5.00
2019-03-21T00:23:00.880Z,5.00
2019-03-21T00:25:27.399Z,5.10
2019-03-21T00:27:53.933Z,4.80
2019-03-21T00:30:22.679Z,4.60
2019-03-21T00:32:49.343Z,4.40
2019-03-21T00:35:16.113Z,4.30
2019-03-21T00:37:42.671Z,4.30
2019-03-21T00:40:12.549Z,4.40
2019-03-21T00:42:39.091Z,4.70
2019-03-21T00:45:10.089Z,5.00
2019-03-21T00:47:36.552Z,5.00
2019-03-21T00:50:06.806Z,5.10
2019-03-21T00:52:33.246Z,5.00
2019-03-21T00:54:59.664Z,4.70
2019-03-21T00:57:26.126Z,4.50
2019-03-21T00:59:52.569Z,4.50
2019-03-21T01:02:19.027Z,4.80
2019-03-21T01:04:45.482Z,4.90
2019-03-21T01:07:12.943Z,4.60
2019-03-21T01:09:39.363Z,4.60
2019-03-21T01:12:06.041Z,4.60
2019-03-21T01:14:32.488Z,4.50
2019-03-21T01:16:58.969Z,4.60
2019-03-21T01:19:25.436Z,4.60
2019-03-21T01:21:51.880Z,4.60
2019-03-21T01:24:18.302Z,4.50
2019-03-21T01:26:44.748Z,4.40
2019-03-21T01:29:11.316Z,4.20
2019-03-21T01:31:37.770Z,4.10
2019-03-21T01:34:04.236Z,4.00
2019-03-21T01:36:30.677Z,3.90
2019-03-21T01:38:57.131Z,3.70
2019-03-21T01:41:23.585Z,3.60
2019-03-21T01:43:50.046Z,3.60
2019-03-21T01:46:18.683Z,3.70
2019-03-21T01:48:45.111Z,3.70
2019-03-21T01:51:11.566Z,3.60
2019-03-21T01:53:38.088Z,3.50
2019-03-21T01:56:04.618Z,3.50
2019-03-21T01:58:31.055Z,3.50
2019-03-21T02:00:57.519Z,3.50
2019-03-21T02:03:23.980Z,3.30
2019-03-21T02:05:50.421Z,3.30
2019-03-21T02:08:16.853Z,3.20
2019-03-21T02:10:43.289Z,3.00
2019-03-21T02:13:09.745Z,3.10
2019-03-21T02:15:37.231Z,3.20
2019-03-21T02:18:04.199Z,2.90
2019-03-21T02:20:31.652Z,2.90
2019-03-21T02:22:58.158Z,2.90
2019-03-21T02:25:35.007Z,3.00
2019-03-21T02:28:01.367Z,2.90
2019-03-21T02:30:38.260Z,2.80
2019-03-21T02:33:11.507Z,2.90
2019-03-21T02:35:37.942Z,2.90
2019-03-21T02:38:04.391Z,2.90
2019-03-21T02:40:30.834Z,3.00
2019-03-21T02:42:57.288Z,2.80
2019-03-21T02:45:23.744Z,2.40
2019-03-21T02:47:50.247Z,2.40
2019-03-21T02:50:34.628Z,2.50
2019-03-21T02:53:03.976Z,2.60
2019-03-21T02:55:30.444Z,2.50
2019-03-21T02:57:56.925Z,2.40
2019-03-21T03:00:34.424Z,2.30
2019-03-21T03:03:02.980Z,2.40
2019-03-21T03:05:30.814Z,2.60
2019-03-21T03:07:57.363Z,2.20
2019-03-21T03:10:36.073Z,2.10
2019-03-21T03:13:03.143Z,2.10
2019-03-21T03:15:33.904Z,2.40
2019-03-21T03:18:13.083Z,2.30
2019-03-21T03:20:39.745Z,2.10
2019-03-21T03:23:06.199Z,2.00
2019-03-21T03:25:32.657Z,2.10
2019-03-21T03:28:02.672Z,2.00
2019-03-21T03:30:29.114Z,1.80
2019-03-21T03:32:55.544Z,1.90
2019-03-21T03:35:21.995Z,1.80
2019-03-21T03:37:48.468Z,2.00
2019-03-21T03:40:18.037Z,1.70
2019-03-21T03:42:44.746Z,2.00
2019-03-21T03:45:37.557Z,2.00
2019-03-21T03:47:57.417Z,1.90
2019-03-21T03:50:24.994Z,2.00
2019-03-21T03:52:51.436Z,1.90
2019-03-21T03:55:18.695Z,1.70
2019-03-21T03:57:47.523Z,1.80
2019-03-21T04:00:19.183Z,1.70
2019-03-21T04:02:47.050Z,1.70
2019-03-21T04:05:13.504Z,1.60
2019-03-21T04:07:41.466Z,1.50
2019-03-21T04:10:14.293Z,1.70
2019-03-21T04:12:40.737Z,1.70
2019-03-21T04:15:09.980Z,1.60
2019-03-21T04:17:36.446Z,1.60
2019-03-21T04:20:09.464Z,1.60
2019-03-21T04:22:35.952Z,1.70
2019-03-21T04:25:03.397Z,1.60
2019-03-21T04:27:29.825Z,1.70
2019-03-21T04:29:56.259Z,1.70
2019-03-21T04:32:22.694Z,1.70
2019-03-21T04:34:49.117Z,1.40
2019-03-21T04:37:15.598Z,1.30
2019-03-21T04:39:42.036Z,1.30
2019-03-21T04:42:08.586Z,1.30
2019-03-21T04:44:35.016Z,1.20
2019-03-21T04:47:01.472Z,1.20
2019-03-21T04:49:27.908Z,1.20
2019-03-21T04:51:54.367Z,1.10
2019-03-21T04:54:20.851Z,1.10
2019-03-21T04:56:47.397Z,1.20
2019-03-21T04:59:13.947Z,1.00
2019-03-21T05:01:40.378Z,1.10
2019-03-21T05:04:06.818Z,0.90
2019-03-21T05:06:33.255Z,0.80
2019-03-21T05:08:59.705Z,0.70
2019-03-21T05:11:26.166Z,0.70
2019-03-21T05:13:52.618Z,0.90
2019-03-21T05:16:19.026Z,0.70
2019-03-21T05:18:58.366Z,0.80
2019-03-21T05:21:24.831Z,0.90
2019-03-21T05:23:51.256Z,0.80
2019-03-21T05:26:17.741Z,0.90
2019-03-21T05:28:44.165Z,0.90
2019-03-21T05:31:26.217Z,0.90
2019-03-21T05:33:52.660Z,1.00
2019-03-21T05:36:19.110Z,0.90
2019-03-21T05:38:45.667Z,1.00
2019-03-21T05:41:12.115Z,1.10
2019-03-21T05:43:54.987Z,1.10
2019-03-21T05:46:26.594Z,1.10
2019-03-21T05:48:50.654Z,1.10
2019-03-21T05:51:17.148Z,1.20
2019-03-21T05:53:43.673Z,1.20
2019-03-21T05:56:10.052Z,1.30
2019-03-21T05:58:36.524Z,1.10
2019-03-21T06:01:09.031Z,1.00
2019-03-21T06:03:47.096Z,1.00
2019-03-21T06:09:36.913Z,1.40
2019-03-21T06:12:04.801Z,1.40
2019-03-21T06:14:35.176Z,1.60
2019-03-21T06:17:01.673Z,1.80
2019-03-21T06:19:40.831Z,1.90
2019-03-21T06:22:30.615Z,2.00
2019-03-21T06:25:17.574Z,2.10
2019-03-21T06:27:44.031Z,2.20
2019-03-21T06:30:10.668Z,2.20
2019-03-21T06:32:37.570Z,2.20
2019-03-21T06:35:07.834Z,2.30
2019-03-21T06:37:34.360Z,2.40
2019-03-21T06:40:00.894Z,2.50
2019-03-21T06:42:27.358Z,2.60
2019-03-21T06:44:53.783Z,2.50
2019-03-21T06:47:20.220Z,2.60
2019-03-21T06:49:46.724Z,2.60
2019-03-21T06:52:13.120Z,2.70
2019-03-21T06:54:39.568Z,2.90
2019-03-21T06:57:06.001Z,3.00
2019-03-21T06:59:32.458Z,3.20
2019-03-21T07:01:58.925Z,3.30
2019-03-21T07:04:25.411Z,3.20
2019-03-21T07:06:51.846Z,3.20
2019-03-21T07:09:18.309Z,3.40
2019-03-21T07:11:44.798Z,3.60
2019-03-21T07:14:11.216Z,3.90
2019-03-21T07:16:37.682Z,3.80
2019-03-21T07:19:04.119Z,3.80
2019-03-21T07:21:30.574Z,3.80
2019-03-21T07:23:57.025Z,3.90
2019-03-21T07:26:23.481Z,4.20
2019-03-21T07:28:50.256Z,4.40
2019-03-21T07:31:16.682Z,4.30
2019-03-21T07:33:43.157Z,4.50
2019-03-21T07:36:09.577Z,4.70
2019-03-21T07:38:37.109Z,4.70
2019-03-21T07:41:03.578Z,4.70
2019-03-21T07:43:29.988Z,4.80
2019-03-21T07:45:56.516Z,4.90
2019-03-21T07:48:23.054Z,5.00
2019-03-21T07:50:49.471Z,5.30
2019-03-21T07:53:15.932Z,5.40
2019-03-21T07:55:43.367Z,5.50
2019-03-21T07:58:10.775Z,5.70
2019-03-21T08:00:37.307Z,6.00
2019-03-21T08:03:03.829Z,5.90
2019-03-21T08:05:39.763Z,5.80
2019-03-21T08:07:58.541Z,6.10
2019-03-21T08:10:25.081Z,6.00
2019-03-21T08:12:51.518Z,5.80
2019-03-21T08:15:18.044Z,6.00
2019-03-21T08:17:44.601Z,6.40
2019-03-21T08:20:15.342Z,6.60
2019-03-21T08:22:42.798Z,6.80
2019-03-21T08:25:10.054Z,6.50
2019-03-21T08:27:36.978Z,6.80
2019-03-21T08:30:08.222Z,6.90
2019-03-21T08:32:34.659Z,7.00
2019-03-21T08:35:01.287Z,7.10
2019-03-21T08:37:27.789Z,7.00
2019-03-21T08:39:54.333Z,7.30
2019-03-21T08:42:20.782Z,7.40
2019-03-21T08:44:48.245Z,7.60
2019-03-21T08:47:14.713Z,8.00
2019-03-21T08:49:41.123Z,8.40
2019-03-21T08:52:07.588Z,8.30
2019-03-21T08:54:35.047Z,8.30
2019-03-21T08:57:01.600Z,8.60
2019-03-21T08:59:28.174Z,9.00
2019-03-21T09:01:54.717Z,9.40
2019-03-21T09:04:21.131Z,9.60
2019-03-21T09:06:47.583Z,9.90
2019-03-21T09:09:14.098Z,10.10
2019-03-21T09:11:40.574Z,10.50
2019-03-21T09:14:08.125Z,10.80
2019-03-21T09:16:34.639Z,10.80
2019-03-21T09:19:01.078Z,10.80
2019-03-21T09:21:27.658Z,11.00
2019-03-21T09:23:54.140Z,11.10
2019-03-21T09:26:20.871Z,11.40
2019-03-21T09:28:47.330Z,11.60
2019-03-21T09:31:13.787Z,11.50
2019-03-21T09:33:40.241Z,11.70
2019-03-21T09:36:06.680Z,11.50
2019-03-21T09:38:33.223Z,11.30
2019-03-21T09:40:59.701Z,11.60
2019-03-21T09:43:26.155Z,11.60
2019-03-21T09:45:52.630Z,11.40
2019-03-21T09:48:19.148Z,11.40
2019-03-21T09:50:45.599Z,11.30
2019-03-21T09:53:12.034Z,11.40
2019-03-21T09:55:38.624Z,11.30
2019-03-21T09:58:05.094Z,11.40
2019-03-21T10:00:33.159Z,11.70
2019-03-21T10:02:59.697Z,11.90
2019-03-21T10:05:26.158Z,12.00
2019-03-21T10:07:52.612Z,12.10
2019-03-21T10:10:27.934Z,12.00
2019-03-21T10:12:55.548Z,12.10
2019-03-21T10:15:22.076Z,12.20
2019-03-21T10:17:48.511Z,12.50
2019-03-21T10:20:14.947Z,12.70
2019-03-21T10:22:41.387Z,13.00
2019-03-21T10:25:08.067Z,13.00
2019-03-21T10:27:34.609Z,13.20
2019-03-21T10:30:01.079Z,13.20
2019-03-21T10:32:27.531Z,13.50
2019-03-21T10:34:53.989Z,13.20
2019-03-21T10:37:20.407Z,13.20
2019-03-21T10:39:46.874Z,12.90
2019-03-21T10:42:13.311Z,12.90
2019-03-21T10:44:40.826Z,12.80
2019-03-21T10:47:07.267Z,13.50
2019-03-21T10:49:33.721Z,13.80
2019-03-21T10:52:00.143Z,13.90
2019-03-21T10:54:26.595Z,14.20
2019-03-21T10:56:53.098Z,14.30
2019-03-21T10:59:19.662Z,14.30
2019-03-21T11:01:46.130Z,14.50
2019-03-21T11:04:12.578Z,14.90
2019-03-21T11:06:39.010Z,14.60
2019-03-21T11:09:06.408Z,14.70
2019-03-21T11:11:33.154Z,14.70
2019-03-21T11:13:59.676Z,15.10
2019-03-21T11:16:26.134Z,15.20
2019-03-21T11:18:52.680Z,15.50
2019-03-21T11:21:19.137Z,15.30
2019-03-21T11:23:45.605Z,15.40
2019-03-21T11:26:12.185Z,15.60
2019-03-21T11:28:38.929Z,15.50
2019-03-21T11:31:05.373Z,15.10
2019-03-21T11:33:31.828Z,15.20
2019-03-21T11:35:58.299Z,15.30
2019-03-21T11:38:24.773Z,15.60
2019-03-21T11:40:51.239Z,15.40
2019-03-21T11:43:17.655Z,15.70
2019-03-21T11:45:44.102Z,15.60
2019-03-21T11:48:10.575Z,16.10
2019-03-21T11:50:37.000Z,16.60
2019-03-21T11:53:03.535Z,15.70
2019-03-21T11:55:32.066Z,15.60
2019-03-21T11:57:58.754Z,15.90
2019-03-21T12:00:25.517Z,16.80
2019-03-21T12:02:52.285Z,17.00
2019-03-21T12:05:18.719Z,17.30
2019-03-21T12:07:46.273Z,17.70
2019-03-21T12:10:15.345Z,17.90
2019-03-21T12:12:41.802Z,17.70
2019-03-21T12:15:09.361Z,18.10
2019-03-21T12:17:35.916Z,18.10
2019-03-21T12:20:05.385Z,18.00
2019-03-21T12:22:31.826Z,18.00
2019-03-21T12:24:58.297Z,18.50
2019-03-21T12:27:24.745Z,18.50
2019-03-21T12:29:51.196Z,18.40
2019-03-21T12:32:17.640Z,18.50
2019-03-21T12:34:44.103Z,18.40
2019-03-21T12:37:10.549Z,18.30
2019-03-21T12:39:36.998Z,18.20
2019-03-21T12:42:03.433Z,18.30
2019-03-21T12:44:29.880Z,18.40
2019-03-21T12:46:56.309Z,18.40
2019-03-21T12:49:22.760Z,18.60
2019-03-21T12:51:49.346Z,19.00
2019-03-21T12:54:15.813Z,19.00
2019-03-21T12:56:42.253Z,19.30
2019-03-21T12:59:08.747Z,19.20
2019-03-21T13:01:35.206Z,18.90
2019-03-21T13:04:01.637Z,19.20
2019-03-21T13:06:28.218Z,19.30
2019-03-21T13:08:54.674Z,19.60
2019-03-21T13:11:21.258Z,20.00
2019-03-21T13:13:47.743Z,19.80
2019-03-21T13:16:14.319Z,19.50
2019-03-21T13:18:40.745Z,19.30
2019-03-21T13:21:07.217Z,19.80
2019-03-21T13:23:33.718Z,20.30
2019-03-21T13:26:00.145Z,19.80
2019-03-21T13:28:26.694Z,19.80
2019-03-21T13:30:53.140Z,19.90
2019-03-21T13:33:19.595Z,20.20
2019-03-21T13:35:46.160Z,19.90
2019-03-21T13:38:12.623Z,19.80
2019-03-21T13:40:39.087Z,20.20
2019-03-21T13:43:05.644Z,19.80
2019-03-21T13:45:32.121Z,19.70
2019-03-21T13:47:59.009Z,20.00
2019-03-21T13:50:33.744Z,19.70
2019-03-21T13:53:04.722Z,20.00
2019-03-21T13:55:28.611Z,19.60
2019-03-21T13:57:55.367Z,20.10
2019-03-21T14:00:22.110Z,19.90
2019-03-21T14:02:48.830Z,20.10
2019-03-21T14:05:15.527Z,20.90
2019-03-21T14:07:42.163Z,21.60
2019-03-21T14:10:09.682Z,21.60
2019-03-21T14:12:36.463Z,21.40
2019-03-21T14:15:05.613Z,21.60
2019-03-21T14:17:32.196Z,21.50
2019-03-21T14:19:58.677Z,21.20
2019-03-21T14:22:25.328Z,21.70
2019-03-21T14:24:52.787Z,22.60
2019-03-21T14:27:19.293Z,22.10
2019-03-21T14:29:45.745Z,21.80
2019-03-21T14:32:12.218Z,22.20
2019-03-21T14:34:38.675Z,21.20
2019-03-21T14:37:05.140Z,21.40
2019-03-21T14:39:31.600Z,21.60
2019-03-21T14:41:58.068Z,22.20
2019-03-21T14:44:24.493Z,22.30
2019-03-21T14:46:51.030Z,22.30
2019-03-21T14:49:17.470Z,23.10
2019-03-21T14:51:43.903Z,22.60
2019-03-21T14:54:10.341Z,23.00
2019-03-21T14:56:36.908Z,23.50
2019-03-21T14:59:03.501Z,23.90
2019-03-21T15:01:31.192Z,22.90
2019-03-21T15:03:57.759Z,23.10
2019-03-21T15:06:24.194Z,24.60
2019-03-21T15:08:50.660Z,25.30
2019-03-21T15:11:17.670Z,25.90
2019-03-21T15:13:44.387Z,26.50
2019-03-21T15:16:11.853Z,26.00
2019-03-21T15:18:38.306Z,24.80
2019-03-21T15:21:04.846Z,24.10
2019-03-21T15:23:40.133Z,24.30
2019-03-21T15:25:59.554Z,23.60
2019-03-21T15:28:26.032Z,23.90
2019-03-21T15:30:52.493Z,23.10
2019-03-21T15:33:19.039Z,23.40
2019-03-21T15:35:45.478Z,24.10
2019-03-21T15:38:11.930Z,23.80
2019-03-21T15:40:38.523Z,23.50
2019-03-21T15:43:04.979Z,22.90
2019-03-21T15:45:31.568Z,22.40
2019-03-21T15:47:58.033Z,21.80
2019-03-21T15:50:30.242Z,20.70
2019-03-21T15:52:57.194Z,20.30
2019-03-21T15:55:23.629Z,21.00
2019-03-21T15:57:50.213Z,22.40
2019-03-21T16:00:20.468Z,22.80
2019-03-21T16:02:47.107Z,23.10
2019-03-21T16:05:13.766Z,22.60
2019-03-21T16:07:40.244Z,22.10
2019-03-21T16:10:06.939Z,21.70
2019-03-21T16:12:33.689Z,20.40
2019-03-21T16:15:00.331Z,19.50
2019-03-21T16:17:26.790Z,18.20
2019-03-21T16:19:53.244Z,17.70
2019-03-21T16:22:19.711Z,17.90
2019-03-21T16:24:46.728Z,17.50
2019-03-21T16:27:14.277Z,17.00
2019-03-21T16:29:41.067Z,16.90
2019-03-21T16:32:19.599Z,16.30
2019-03-21T16:35:00.267Z,16.00
2019-03-21T16:37:48.460Z,15.90
2019-03-21T16:40:15.358Z,15.90
2019-03-21T16:43:06.338Z,15.50
2019-03-21T16:45:33.022Z,15.50
2019-03-21T16:47:59.495Z,15.20
2019-03-21T16:50:25.964Z,15.10
2019-03-21T16:52:52.375Z,14.90
2019-03-21T16:55:18.842Z,14.90
2019-03-21T16:57:45.302Z,14.60
2019-03-21T17:00:17.799Z,14.40
2019-03-21T17:02:44.619Z,13.90
2019-03-21T17:05:11.335Z,13.80
2019-03-21T17:07:37.857Z,13.50
2019-03-21T17:10:05.525Z,13.40
2019-03-21T17:12:40.905Z,13.50
2019-03-21T17:15:08.806Z,13.40
2019-03-21T17:17:35.349Z,13.30
2019-03-21T17:21:27.834Z,13.10
2019-03-21T17:22:47.083Z,13.10
2019-03-21T17:25:17.679Z,12.80
2019-03-21T17:30:41.636Z,12.40
2019-03-21T17:33:08.198Z,12.10
2019-03-21T17:35:36.401Z,12.00
2019-03-21T17:38:07.034Z,11.90
2019-03-21T17:43:57.319Z,11.60
2019-03-21T17:49:20.210Z,11.30
2019-03-21T17:51:46.962Z,11.20
2019-03-21T17:54:16.202Z,11.00
2019-03-21T17:56:42.801Z,10.90
2019-03-21T17:59:11.908Z,10.70
2019-03-21T18:07:23.785Z,10.20
2019-03-21T18:09:54.923Z,10.10
2019-03-21T18:12:33.833Z,9.90
2019-03-21T18:18:05.418Z,9.80
2019-03-21T18:26:40.566Z,9.80
2019-03-21T18:29:07.828Z,9.80
2019-03-21T18:31:35.707Z,9.80
2019-03-21T18:34:04.030Z,9.80
2019-03-21T18:36:33.146Z,9.80
2019-03-21T18:39:05.307Z,9.90
2019-03-21T18:41:37.499Z,9.70
2019-03-21T18:44:10.689Z,9.30
2019-03-21T18:46:38.312Z,9.10
2019-03-21T18:52:08.311Z,8.70
2019-03-21T18:54:35.309Z,8.70
2019-03-21T19:05:31.507Z,8.30
2019-03-21T19:11:21.320Z,8.30
2019-03-21T19:20:04.848Z,8.30
2019-03-21T19:22:35.643Z,8.00
2019-03-21T19:25:17.497Z,7.80
2019-03-21T19:30:16.801Z,7.80
2019-03-21T19:32:48.967Z,7.40
2019-03-21T19:35:26.976Z,7.60
2019-03-21T19:38:04.305Z,7.70
2019-03-21T19:40:35.793Z,7.60
2019-03-21T19:43:02.500Z,7.30
2019-03-21T19:45:35.083Z,7.40
2019-03-21T19:48:02.026Z,7.50
2019-03-21T19:50:29.290Z,7.40
2019-03-21T19:52:55.846Z,7.30
2019-03-21T19:55:31.088Z,7.40
2019-03-21T19:58:03.053Z,7.30
2019-03-21T20:12:13.365Z,6.80
2019-03-21T20:14:40.873Z,6.90
2019-03-21T20:17:07.705Z,6.90
2019-03-21T20:19:34.547Z,6.90
2019-03-21T20:22:01.247Z,6.90
2019-03-21T20:24:28.206Z,6.80
2019-03-21T20:26:55.000Z,6.60
2019-03-21T20:29:21.700Z,6.20
2019-03-21T20:31:48.160Z,6.10
2019-03-21T20:34:14.733Z,5.60
2019-03-21T20:36:41.201Z,5.60
2019-03-21T20:39:08.043Z,5.70
2019-03-21T20:41:34.634Z,5.80
2019-03-21T20:44:01.178Z,6.00
2019-03-21T20:46:27.626Z,5.90
2019-03-21T20:48:53.975Z,5.70
2019-03-21T20:51:20.550Z,5.80
2019-03-21T20:53:47.136Z,5.70
2019-03-21T20:56:13.827Z,5.70
2019-03-21T20:58:40.322Z,5.60
2019-03-21T21:01:07.045Z,5.60
2019-03-21T21:03:33.627Z,5.60
2019-03-21T21:06:00.408Z,5.70
2019-03-21T21:08:27.139Z,5.80
2019-03-21T21:10:53.734Z,5.70
2019-03-21T21:13:28.371Z,5.80
2019-03-21T21:16:06.998Z,5.80
2019-03-21T21:18:38.885Z,5.60
2019-03-21T21:21:22.315Z,5.70
2019-03-21T21:23:51.130Z,5.30
2019-03-21T21:26:17.800Z,5.00
2019-03-21T21:28:44.546Z,5.00
2019-03-21T21:31:11.307Z,5.20
2019-03-21T21:33:39.572Z,5.40
2019-03-21T21:36:06.438Z,5.40
2019-03-21T21:38:33.094Z,5.20
2019-03-21T21:40:59.644Z,5.30
2019-03-21T21:43:26.252Z,5.30
2019-03-21T21:45:53.751Z,5.10
2019-03-21T21:48:20.393Z,5.10
2019-03-21T21:50:46.871Z,4.90
2019-03-21T21:53:13.328Z,4.40
2019-03-21T21:55:39.797Z,4.70
2019-03-21T21:58:06.260Z,4.60
2019-03-21T22:00:33.475Z,4.40
2019-03-21T22:03:02.792Z,4.30
2019-03-21T22:05:29.735Z,4.40
2019-03-21T22:08:00.219Z,4.50
2019-03-21T22:10:29.432Z,4.30
2019-03-21T22:12:56.594Z,4.10
2019-03-21T22:15:23.307Z,4.40
2019-03-21T22:17:51.847Z,4.50
2019-03-21T22:20:23.910Z,4.60
2019-03-21T22:22:52.715Z,4.60
2019-03-21T22:25:23.003Z,4.40
2019-03-21T22:27:57.547Z,4.60
2019-03-21T22:30:25.882Z,4.60
2019-03-21T22:32:59.211Z,4.60
2019-03-21T22:35:28.221Z,4.60
2019-03-21T22:37:59.582Z,4.60
2019-03-21T22:40:27.946Z,4.40
2019-03-21T22:43:03.463Z,4.10
2019-03-21T22:45:30.370Z,3.90
2019-03-21T22:47:58.468Z,4.20
2019-03-21T22:50:25.553Z,4.30
2019-03-21T22:52:52.556Z,3.90
2019-03-21T22:55:21.004Z,4.10
2019-03-21T22:57:47.642Z,4.20
2019-03-21T23:00:18.869Z,4.20
2019-03-21T23:02:49.450Z,3.60
2019-03-21T23:05:21.779Z,3.60
2019-03-21T23:07:50.724Z,3.70
2019-03-21T23:10:21.262Z,3.90
2019-03-21T23:12:50.738Z,3.70
2019-03-21T23:15:17.972Z,3.40
2019-03-21T23:17:57.875Z,3.40
2019-03-21T23:20:27.296Z,3.50
2019-03-21T23:23:01.444Z,3.10
2019-03-21T23:25:34.889Z,3.10
2019-03-21T23:28:02.802Z,3.30
2019-03-21T23:30:33.361Z,3.40
2019-03-21T23:33:01.237Z,3.40
2019-03-21T23:35:28.519Z,2.80
2019-03-21T23:37:58.209Z,3.10
2019-03-21T23:40:26.199Z,3.40
2019-03-21T23:42:53.163Z,3.40
2019-03-21T23:45:20.265Z,3.50
2019-03-21T23:47:47.362Z,3.40
2019-03-21T23:50:14.429Z,3.50
2019-03-21T23:52:44.556Z,3.50
2019-03-21T23:55:13.186Z,3.60
2019-03-21T23:57:41.208Z,3.40
